createdAt,value
2018-11-29T00:02:07.298Z,4.27
2018-11-29T00:04:35.589Z,4.03
2018-11-29T00:07:04.170Z,3.50
2018-11-29T00:09:38.598Z,3.10
2018-11-29T00:12:07.225Z,3.70
2018-11-29T00:14:35.985Z,3.30
2018-11-29T00:17:04.645Z,3.67
2018-11-29T00:19:33.360Z,3.03
2018-11-29T00:22:01.723Z,2.30
2018-11-29T00:24:29.843Z,2.87
2018-11-29T00:26:59.551Z,3.33
2018-11-29T00:29:28.243Z,3.30
2018-11-29T00:31:56.718Z,3.43
2018-11-29T00:34:25.202Z,3.47
2018-11-29T00:36:53.333Z,2.77
2018-11-29T00:39:21.452Z,3.33
2018-11-29T00:41:49.515Z,3.60
2018-11-29T00:44:17.784Z,3.80
2018-11-29T00:46:46.355Z,2.87
2018-11-29T00:49:14.545Z,3.07
2018-11-29T00:51:42.710Z,2.77
2018-11-29T00:54:10.799Z,3.13
2018-11-29T00:56:38.966Z,3.37
2018-11-29T00:59:07.092Z,3.00
2018-11-29T01:01:35.283Z,3.13
2018-11-29T01:04:04.265Z,3.07
2018-11-29T01:06:31.752Z,3.30
2018-11-29T01:08:59.832Z,3.50
2018-11-29T01:11:27.987Z,4.57
2018-11-29T01:13:56.026Z,5.07
2018-11-29T01:16:24.502Z,5.03
2018-11-29T01:18:52.618Z,5.03
2018-11-29T01:21:20.775Z,5.60
2018-11-29T01:23:49.325Z,7.20
2018-11-29T01:26:17.837Z,7.60
2018-11-29T01:28:46.315Z,7.50
2018-11-29T01:31:14.830Z,8.10
2018-11-29T01:33:43.360Z,8.03
2018-11-29T01:36:11.745Z,8.70
2018-11-29T01:38:40.008Z,8.17
2018-11-29T01:41:08.659Z,7.57
2018-11-29T01:43:36.821Z,8.17
2018-11-29T01:46:05.323Z,8.60
2018-11-29T01:48:33.880Z,9.13
2018-11-29T01:51:02.220Z,9.43
2018-11-29T01:53:30.476Z,8.93
2018-11-29T01:55:58.854Z,7.47
2018-11-29T01:58:27.163Z,7.73
2018-11-29T02:00:55.833Z,7.00
2018-11-29T02:03:24.239Z,6.43
2018-11-29T02:05:52.562Z,7.07
2018-11-29T02:08:21.002Z,6.07
2018-11-29T02:10:50.403Z,5.20
2018-11-29T02:13:19.267Z,4.87
2018-11-29T02:15:47.469Z,5.17
2018-11-29T02:18:16.711Z,5.67
2018-11-29T02:20:44.851Z,6.13
2018-11-29T02:23:13.626Z,5.87
2018-11-29T02:25:42.054Z,4.93
2018-11-29T02:28:10.386Z,6.40
2018-11-29T02:30:38.627Z,4.47
2018-11-29T02:33:06.757Z,5.47
2018-11-29T02:35:35.103Z,5.40
2018-11-29T02:38:03.749Z,6.20
2018-11-29T02:40:32.030Z,5.70
2018-11-29T02:43:00.251Z,5.53
2018-11-29T02:45:28.548Z,5.43
2018-11-29T02:47:56.753Z,6.40
2018-11-29T02:50:25.230Z,6.70
2018-11-29T02:52:53.318Z,6.77
2018-11-29T02:55:21.454Z,5.93
2018-11-29T02:57:50.313Z,6.90
2018-11-29T03:00:19.004Z,5.87
2018-11-29T03:02:47.833Z,5.03
2018-11-29T03:05:16.301Z,6.83
2018-11-29T03:07:44.435Z,6.80
2018-11-29T03:10:13.800Z,6.63
2018-11-29T03:12:42.213Z,5.83
2018-11-29T03:15:11.056Z,6.50
2018-11-29T03:17:40.317Z,5.63
2018-11-29T03:20:08.985Z,6.00
2018-11-29T03:22:37.095Z,5.40
2018-11-29T03:25:07.075Z,6.13
2018-11-29T03:27:35.318Z,5.67
2018-11-29T03:30:03.484Z,5.80
2018-11-29T03:32:31.565Z,4.47
2018-11-29T03:34:59.971Z,4.43
2018-11-29T03:37:28.208Z,4.03
2018-11-29T03:39:56.311Z,4.20
2018-11-29T03:42:25.657Z,3.47
2018-11-29T03:44:53.748Z,3.57
2018-11-29T03:47:21.804Z,2.80
2018-11-29T03:49:50.037Z,2.70
2018-11-29T03:52:18.348Z,2.70
2018-11-29T03:54:46.687Z,3.10
2018-11-29T03:57:14.827Z,3.30
2018-11-29T03:59:42.891Z,3.33
2018-11-29T04:02:10.976Z,3.00
2018-11-29T04:04:39.093Z,3.43
2018-11-29T04:07:07.214Z,2.93
2018-11-29T04:09:35.282Z,2.70
2018-11-29T04:12:03.671Z,2.50
2018-11-29T04:14:31.817Z,2.60
2018-11-29T04:16:59.947Z,2.20
2018-11-29T04:19:28.207Z,2.10
2018-11-29T04:21:56.287Z,2.10
2018-11-29T04:24:24.413Z,1.83
2018-11-29T04:26:52.507Z,1.97
2018-11-29T04:29:20.605Z,1.70
2018-11-29T04:31:48.788Z,1.67
2018-11-29T04:34:16.851Z,2.20
2018-11-29T04:36:44.968Z,2.13
2018-11-29T04:39:13.154Z,1.90
2018-11-29T04:41:41.285Z,2.00
2018-11-29T04:44:09.382Z,1.57
2018-11-29T04:46:42.048Z,2.23
2018-11-29T04:49:10.194Z,2.87
2018-11-29T04:51:38.321Z,1.77
2018-11-29T04:54:06.891Z,1.47
2018-11-29T04:56:35.020Z,1.70
2018-11-29T04:59:03.134Z,2.13
2018-11-29T05:01:31.255Z,1.00
2018-11-29T05:03:59.354Z,1.20
2018-11-29T05:06:27.459Z,1.10
2018-11-29T05:08:55.542Z,1.37
2018-11-29T05:11:23.635Z,1.43
2018-11-29T05:13:51.729Z,0.90
2018-11-29T05:16:19.875Z,0.97
2018-11-29T05:18:47.990Z,1.00
2018-11-29T05:21:16.164Z,1.00
2018-11-29T05:23:44.511Z,1.07
2018-11-29T05:26:12.909Z,1.40
2018-11-29T05:28:41.382Z,1.20
2018-11-29T05:31:09.702Z,1.17
2018-11-29T05:33:37.940Z,1.10
2018-11-29T05:36:06.296Z,1.20
2018-11-29T05:38:34.525Z,1.10
2018-11-29T05:41:03.239Z,0.93
2018-11-29T05:43:31.730Z,1.20
2018-11-29T05:46:00.041Z,1.20
2018-11-29T05:48:28.474Z,1.40
2018-11-29T05:50:57.037Z,1.63
2018-11-29T05:53:25.443Z,1.27
2018-11-29T05:55:53.599Z,0.87
2018-11-29T05:58:22.033Z,1.03
2018-11-29T06:00:50.389Z,1.23
2018-11-29T06:03:19.230Z,0.67
2018-11-29T06:05:52.708Z,1.30
2018-11-29T06:08:21.034Z,0.93
2018-11-29T06:10:49.658Z,0.77
2018-11-29T06:13:18.198Z,0.90
2018-11-29T06:15:46.715Z,1.33
2018-11-29T06:18:14.960Z,0.70
2018-11-29T06:20:43.768Z,0.90
2018-11-29T06:23:11.939Z,0.80
2018-11-29T06:25:42.485Z,1.00
2018-11-29T06:28:10.617Z,0.73
2018-11-29T06:30:38.751Z,0.63
2018-11-29T06:33:06.860Z,0.80
2018-11-29T06:35:35.156Z,0.50
2018-11-29T06:38:03.333Z,0.50
2018-11-29T06:40:31.440Z,0.60
2018-11-29T06:42:59.592Z,0.77
2018-11-29T06:45:27.758Z,0.70
2018-11-29T06:47:55.890Z,0.70
2018-11-29T06:50:24.167Z,0.97
2018-11-29T06:52:52.213Z,0.70
2018-11-29T06:55:20.863Z,0.40
2018-11-29T06:57:49.101Z,1.00
2018-11-29T07:00:22.194Z,0.90
2018-11-29T07:02:50.268Z,0.70
2018-11-29T07:05:18.361Z,0.70
2018-11-29T07:07:46.487Z,0.90
2018-11-29T07:10:16.045Z,0.80
2018-11-29T07:12:44.213Z,0.60
2018-11-29T07:15:13.085Z,0.87
2018-11-29T07:17:41.941Z,0.90
2018-11-29T07:20:12.712Z,0.87
2018-11-29T07:22:40.931Z,0.83
2018-11-29T07:25:09.343Z,0.97
2018-11-29T07:27:37.841Z,0.83
2018-11-29T07:30:08.155Z,0.70
2018-11-29T07:32:36.290Z,1.03
2018-11-29T07:35:04.738Z,0.70
2018-11-29T07:37:33.016Z,0.90
2018-11-29T07:40:01.116Z,0.80
2018-11-29T07:42:29.585Z,0.90
2018-11-29T07:44:58.112Z,0.93
2018-11-29T07:47:26.512Z,0.70
2018-11-29T07:49:54.748Z,1.73
2018-11-29T07:52:23.085Z,1.33
2018-11-29T07:54:51.569Z,1.50
2018-11-29T07:57:20.045Z,0.90
2018-11-29T07:59:48.246Z,1.47
2018-11-29T08:02:16.461Z,1.63
2018-11-29T08:04:44.672Z,0.97
2018-11-29T08:07:12.891Z,1.20
2018-11-29T08:09:41.121Z,1.73
2018-11-29T08:12:09.785Z,1.70
2018-11-29T08:14:40.571Z,1.30
2018-11-29T08:17:08.798Z,1.40
2018-11-29T08:19:37.022Z,1.43
2018-11-29T08:22:05.257Z,1.13
2018-11-29T08:24:33.599Z,1.37
2018-11-29T08:27:02.678Z,1.20
2018-11-29T08:29:35.111Z,1.27
2018-11-29T08:32:00.149Z,1.20
2018-11-29T08:34:28.350Z,1.70
2018-11-29T08:36:56.594Z,1.43
2018-11-29T08:39:24.868Z,1.73
2018-11-29T08:41:53.066Z,2.17
2018-11-29T08:44:21.317Z,1.37
2018-11-29T08:46:49.551Z,1.60
2018-11-29T08:49:17.824Z,1.50
2018-11-29T08:51:46.033Z,1.13
2018-11-29T08:54:14.254Z,1.23
2018-11-29T08:56:42.525Z,1.27
2018-11-29T08:59:10.755Z,1.20
2018-11-29T09:01:39.035Z,1.47
2018-11-29T09:04:07.169Z,0.90
2018-11-29T09:06:35.349Z,1.77
2018-11-29T09:09:03.899Z,1.17
2018-11-29T09:11:31.949Z,1.80
2018-11-29T09:14:00.032Z,1.70
2018-11-29T09:16:28.139Z,2.63
2018-11-29T09:18:56.231Z,2.10
2018-11-29T09:21:24.355Z,2.20
2018-11-29T09:23:52.523Z,2.13
2018-11-29T09:26:20.607Z,2.57
2018-11-29T09:28:49.776Z,3.17
2018-11-29T09:31:17.844Z,2.53
2018-11-29T09:33:49.605Z,2.50
2018-11-29T09:36:17.996Z,2.60
2018-11-29T09:38:46.446Z,3.00
2018-11-29T09:41:15.058Z,2.80
2018-11-29T09:43:43.584Z,3.43
2018-11-29T09:46:11.903Z,3.23
2018-11-29T09:48:40.602Z,3.20
2018-11-29T09:51:09.104Z,3.30
2018-11-29T09:53:37.536Z,2.90
2018-11-29T09:56:06.049Z,2.90
2018-11-29T09:58:34.322Z,2.80
2018-11-29T10:01:04.156Z,2.67
2018-11-29T10:03:32.590Z,2.60
2018-11-29T10:06:00.909Z,2.70
2018-11-29T10:08:29.634Z,2.97
2018-11-29T10:10:58.115Z,3.97
2018-11-29T10:13:26.644Z,2.73
2018-11-29T10:15:55.481Z,3.57
2018-11-29T10:18:24.115Z,3.60
2018-11-29T10:20:52.976Z,3.33
2018-11-29T10:23:21.690Z,2.20
2018-11-29T10:25:50.622Z,2.70
2018-11-29T10:28:19.405Z,3.60
2018-11-29T10:30:52.022Z,3.43
2018-11-29T10:33:20.564Z,3.17
2018-11-29T10:35:49.144Z,3.10
2018-11-29T10:38:17.996Z,3.50
2018-11-29T10:40:46.679Z,2.53
2018-11-29T10:43:15.773Z,3.53
2018-11-29T10:45:44.659Z,3.67
2018-11-29T10:48:16.054Z,3.97
2018-11-29T10:50:45.874Z,3.50
2018-11-29T10:53:14.534Z,3.57
2018-11-29T10:55:43.525Z,4.30
2018-11-29T10:58:12.272Z,3.17
2018-11-29T11:00:46.176Z,2.60
2018-11-29T11:03:19.295Z,2.87
2018-11-29T11:05:49.377Z,2.73
2018-11-29T11:08:18.066Z,3.13
2018-11-29T11:10:47.012Z,2.27
2018-11-29T11:13:15.846Z,2.27
2018-11-29T11:15:44.774Z,1.90
2018-11-29T11:18:14.030Z,1.83
2018-11-29T11:20:42.712Z,2.27
2018-11-29T11:23:11.325Z,1.83
2018-11-29T11:25:40.176Z,1.80
2018-11-29T11:28:09.050Z,1.60
2018-11-29T11:30:41.250Z,1.57
2018-11-29T11:33:09.729Z,2.33
2018-11-29T11:35:38.122Z,2.17
2018-11-29T11:38:06.354Z,1.33
2018-11-29T11:40:34.804Z,1.63
2018-11-29T11:43:05.452Z,1.90
2018-11-29T11:45:32.269Z,1.50
2018-11-29T11:48:03.494Z,1.50
2018-11-29T11:50:31.188Z,1.40
2018-11-29T11:52:59.601Z,1.73
2018-11-29T11:58:14.250Z,2.33
2018-11-29T12:00:42.746Z,1.63
2018-11-29T12:03:15.484Z,1.70
2018-11-29T12:05:44.228Z,1.10
2018-11-29T12:08:12.906Z,1.17
2018-11-29T12:10:42.400Z,1.07
2018-11-29T12:13:11.006Z,1.60
2018-11-29T12:15:39.534Z,1.33
2018-11-29T12:18:09.944Z,1.67
2018-11-29T12:20:38.273Z,2.10
2018-11-29T12:23:07.208Z,1.53
2018-11-29T12:25:35.696Z,1.93
2018-11-29T12:28:04.124Z,1.60
2018-11-29T12:30:33.279Z,0.93
2018-11-29T12:33:02.800Z,1.53
2018-11-29T12:35:31.412Z,1.50
2018-11-29T12:38:00.024Z,0.93
2018-11-29T12:40:28.441Z,1.40
2018-11-29T12:42:56.662Z,1.17
2018-11-29T12:45:24.959Z,1.40
2018-11-29T12:47:53.154Z,1.10
2018-11-29T12:50:22.192Z,1.13
2018-11-29T12:52:50.888Z,0.70
2018-11-29T12:55:19.752Z,1.30
2018-11-29T12:57:56.493Z,0.83
2018-11-29T13:00:18.264Z,1.30
2018-11-29T13:02:50.842Z,1.30
2018-11-29T13:05:19.196Z,1.60
2018-11-29T13:07:47.632Z,2.00
2018-11-29T13:10:16.349Z,1.30
2018-11-29T13:12:45.067Z,1.40
2018-11-29T13:15:15.832Z,1.47
2018-11-29T13:17:44.062Z,1.87
2018-11-29T13:20:13.753Z,1.23
2018-11-29T13:22:42.226Z,1.33
2018-11-29T13:25:11.343Z,1.20
2018-11-29T13:27:39.714Z,0.90
2018-11-29T13:30:08.814Z,1.53
2018-11-29T13:32:37.059Z,1.10
2018-11-29T13:35:08.335Z,1.10
2018-11-29T13:37:36.581Z,0.80
2018-11-29T13:40:06.676Z,0.90
2018-11-29T13:42:35.211Z,0.93
2018-11-29T13:45:03.666Z,1.00
2018-11-29T13:47:31.866Z,1.13
2018-11-29T13:50:00.240Z,0.80
2018-11-29T13:52:28.708Z,0.93
2018-11-29T13:54:59.762Z,1.03
2018-11-29T13:57:28.147Z,1.37
2018-11-29T13:59:57.419Z,1.60
2018-11-29T14:02:25.867Z,0.90
2018-11-29T14:04:54.302Z,1.30
2018-11-29T14:07:24.930Z,1.40
2018-11-29T14:09:53.318Z,1.13
2018-11-29T14:12:21.617Z,1.43
2018-11-29T14:14:49.913Z,1.23
2018-11-29T14:17:18.406Z,1.27
2018-11-29T14:19:46.924Z,1.20
2018-11-29T14:22:15.412Z,1.10
2018-11-29T14:24:43.687Z,1.33
2018-11-29T14:27:11.959Z,1.50
2018-11-29T14:29:40.226Z,1.53
2018-11-29T14:32:08.703Z,1.20
2018-11-29T14:34:36.898Z,1.00
2018-11-29T14:37:05.695Z,0.90
2018-11-29T14:39:34.159Z,1.10
2018-11-29T14:42:02.534Z,1.00
2018-11-29T14:44:31.336Z,0.83
2018-11-29T14:46:59.644Z,1.27
2018-11-29T14:49:27.875Z,1.00
2018-11-29T14:51:56.124Z,1.40
2018-11-29T14:54:24.324Z,1.10
2018-11-29T14:56:52.561Z,0.77
2018-11-29T14:59:20.808Z,1.00
2018-11-29T15:01:49.067Z,1.00
2018-11-29T15:04:17.400Z,0.90
2018-11-29T15:06:45.749Z,0.73
2018-11-29T15:09:14.184Z,1.13
2018-11-29T15:11:43.054Z,0.90
2018-11-29T15:14:11.542Z,1.20
2018-11-29T15:16:40.208Z,1.30
2018-11-29T15:19:08.680Z,1.40
2018-11-29T15:21:37.574Z,1.00
2018-11-29T15:24:06.113Z,1.27
2018-11-29T15:26:34.468Z,1.20
2018-11-29T15:29:02.982Z,1.20
2018-11-29T15:31:31.400Z,1.00
2018-11-29T15:34:00.220Z,1.23
2018-11-29T15:36:29.275Z,1.30
2018-11-29T15:38:58.347Z,1.40
2018-11-29T15:41:27.075Z,1.07
2018-11-29T15:43:55.761Z,1.00
2018-11-29T15:46:24.674Z,1.47
2018-11-29T15:48:53.526Z,1.23
2018-11-29T15:51:21.917Z,1.23
2018-11-29T15:53:50.336Z,1.33
2018-11-29T15:56:19.604Z,1.83
2018-11-29T15:58:48.275Z,2.90
2018-11-29T16:01:16.917Z,1.77
2018-11-29T16:03:45.820Z,1.37
2018-11-29T16:06:14.290Z,1.30
2018-11-29T16:08:42.726Z,1.50
2018-11-29T16:11:11.316Z,1.50
2018-11-29T16:13:39.568Z,1.60
2018-11-29T16:16:07.977Z,1.00
2018-11-29T16:18:36.564Z,1.30
2018-11-29T16:21:05.066Z,1.70
2018-11-29T16:23:34.088Z,1.43
2018-11-29T16:26:02.857Z,2.00
2018-11-29T16:28:31.701Z,1.40
2018-11-29T16:33:45.200Z,1.47
2018-11-29T16:36:14.453Z,1.27
2018-11-29T16:38:43.915Z,1.80
2018-11-29T16:41:12.242Z,1.63
2018-11-29T16:43:40.536Z,1.23
2018-11-29T16:46:08.786Z,1.43
2018-11-29T16:48:37.011Z,2.00
2018-11-29T16:51:05.602Z,1.87
2018-11-29T16:53:34.024Z,1.80
2018-11-29T16:56:02.398Z,1.47
2018-11-29T16:58:30.880Z,1.77
2018-11-29T17:00:59.538Z,1.57
2018-11-29T17:03:27.951Z,1.60
2018-11-29T17:05:56.559Z,1.90
2018-11-29T17:08:26.287Z,1.97
2018-11-29T17:10:54.682Z,1.77
2018-11-29T17:13:24.470Z,1.83
2018-11-29T17:15:52.915Z,1.60
2018-11-29T17:18:21.581Z,2.03
2018-11-29T17:20:50.082Z,1.63
2018-11-29T17:23:18.529Z,1.80
2018-11-29T17:25:47.008Z,1.90
2018-11-29T17:28:16.762Z,2.47
2018-11-29T17:30:45.366Z,1.70
2018-11-29T17:33:13.682Z,1.80
2018-11-29T17:35:42.092Z,2.02
2018-11-29T17:38:10.352Z,2.13
2018-11-29T17:40:38.764Z,1.90
2018-11-29T17:43:07.197Z,1.87
2018-11-29T18:01:46.284Z,2.07
2018-11-29T18:04:14.212Z,1.87
2018-11-29T18:06:42.669Z,1.87
2018-11-29T18:09:11.367Z,2.20
2018-11-29T18:11:39.669Z,1.40
2018-11-29T18:14:08.178Z,1.93
2018-11-29T18:16:36.430Z,1.63
2018-11-29T18:19:04.866Z,1.50
2018-11-29T18:21:33.355Z,2.20
2018-11-29T18:24:01.321Z,2.00
2018-11-29T18:26:29.594Z,1.83
2018-11-29T18:28:57.566Z,1.40
2018-11-29T18:31:25.841Z,2.27
2018-11-29T18:33:53.943Z,1.67
2018-11-29T18:36:23.562Z,1.80
2018-11-29T18:38:50.465Z,2.00
2018-11-29T18:41:18.456Z,2.03
2018-11-29T18:43:46.470Z,1.93
2018-11-29T18:46:17.159Z,2.87
2018-11-29T18:48:42.723Z,2.00
2018-11-29T18:51:10.820Z,2.00
2018-11-29T18:53:38.762Z,2.20
2018-11-29T18:56:06.986Z,2.00
2018-11-29T18:58:34.991Z,2.67
2018-11-29T19:01:03.078Z,2.37
2018-11-29T19:03:31.365Z,1.83
2018-11-29T19:05:59.650Z,1.73
2018-11-29T19:08:27.593Z,2.20
2018-11-29T19:10:55.974Z,1.70
2018-11-29T19:13:24.048Z,2.07
2018-11-29T19:15:52.123Z,2.13
2018-11-29T19:18:20.004Z,2.87
2018-11-29T19:20:48.276Z,2.53
2018-11-29T19:23:16.528Z,1.70
2018-11-29T19:25:44.601Z,1.80
2018-11-29T19:28:12.894Z,2.72
2018-11-29T19:30:41.142Z,2.27
2018-11-29T19:33:17.292Z,2.20
2018-11-29T19:35:41.221Z,2.50
2018-11-29T19:38:09.270Z,2.35
2018-11-29T19:40:37.305Z,2.00
2018-11-29T19:43:06.007Z,2.60
2018-11-29T19:45:33.912Z,2.07
2018-11-29T19:48:01.970Z,2.50
2018-11-29T19:50:30.011Z,2.33
2018-11-29T19:52:58.721Z,2.17
2018-11-29T19:55:27.478Z,2.57
2018-11-29T19:57:55.715Z,2.47
2018-11-29T20:00:23.609Z,2.37
2018-11-29T20:02:52.481Z,2.20
2018-11-29T20:05:20.534Z,2.23
2018-11-29T20:07:48.788Z,2.00
2018-11-29T20:10:17.377Z,2.33
2018-11-29T20:12:46.200Z,1.77
2018-11-29T20:15:17.609Z,2.03
2018-11-29T20:17:45.811Z,2.07
2018-11-29T20:20:13.907Z,1.83
2018-11-29T20:22:41.977Z,2.43
2018-11-29T20:25:10.589Z,2.30
2018-11-29T20:27:38.889Z,2.30
2018-11-29T20:30:09.169Z,2.57
2018-11-29T20:32:38.653Z,2.13
2018-11-29T20:35:07.257Z,2.10
2018-11-29T20:37:35.323Z,1.87
2018-11-29T20:40:03.601Z,2.57
2018-11-29T20:42:31.864Z,2.43
2018-11-29T20:44:59.800Z,2.37
2018-11-29T20:47:28.185Z,2.10
2018-11-29T20:49:56.274Z,2.37
2018-11-29T20:52:24.365Z,2.20
2018-11-29T20:54:52.622Z,1.67
2018-11-29T20:57:20.957Z,1.97
2018-11-29T20:59:48.992Z,3.10
2018-11-29T21:02:17.090Z,2.30
2018-11-29T21:04:45.329Z,2.37
2018-11-29T21:07:13.440Z,2.23
2018-11-29T21:09:41.334Z,1.63
2018-11-29T21:12:09.752Z,2.23
2018-11-29T21:14:37.815Z,2.17
2018-11-29T21:17:06.094Z,2.40
2018-11-29T21:19:34.186Z,2.03
2018-11-29T21:22:02.420Z,2.43
2018-11-29T21:24:30.480Z,2.27
2018-11-29T21:26:58.431Z,2.63
2018-11-29T21:29:26.336Z,1.93
2018-11-29T21:31:54.547Z,2.13
2018-11-29T21:34:23.679Z,2.13
2018-11-29T21:36:51.053Z,2.27
2018-11-29T21:39:19.139Z,2.53
2018-11-29T21:41:47.174Z,2.43
2018-11-29T21:44:15.259Z,2.30
2018-11-29T21:46:43.348Z,2.20
2018-11-29T21:49:11.384Z,2.20
2018-11-29T21:51:39.669Z,2.30
2018-11-29T21:54:07.737Z,3.03
2018-11-29T21:56:35.826Z,1.80
2018-11-29T21:59:03.907Z,1.80
2018-11-29T22:01:32.988Z,2.23
2018-11-29T22:04:00.884Z,1.77
2018-11-29T22:06:28.941Z,1.57
2018-11-29T22:08:57.586Z,2.10
2018-11-29T22:11:25.692Z,2.47
2018-11-29T22:13:53.590Z,2.17
2018-11-29T22:16:21.659Z,2.47
2018-11-29T22:18:49.511Z,2.10
2018-11-29T22:21:17.969Z,2.70
2018-11-29T22:23:46.217Z,2.27
2018-11-29T22:26:14.984Z,2.10
2018-11-29T22:28:42.969Z,2.40
2018-11-29T22:31:11.090Z,2.53
2018-11-29T22:33:38.970Z,2.30
2018-11-29T22:36:06.865Z,2.40
2018-11-29T22:38:34.724Z,2.47
2018-11-29T22:41:03.141Z,1.80
2018-11-29T22:43:31.254Z,2.50
2018-11-29T22:45:59.067Z,2.23
2018-11-29T22:48:27.133Z,2.43
2018-11-29T22:50:55.214Z,1.80
2018-11-29T22:53:23.308Z,3.20
2018-11-29T22:55:51.359Z,2.13
2018-11-29T22:58:19.441Z,2.97
2018-11-29T23:00:54.366Z,2.63
2018-11-29T23:03:22.370Z,2.10
2018-11-29T23:05:50.281Z,2.10
2018-11-29T23:08:18.163Z,2.63
2018-11-29T23:10:46.309Z,2.30
2018-11-29T23:13:14.434Z,2.83
2018-11-29T23:15:42.416Z,2.30
2018-11-29T23:18:10.291Z,1.97
2018-11-29T23:20:38.433Z,2.47
2018-11-29T23:23:06.707Z,2.27
2018-11-29T23:25:34.796Z,2.20
2018-11-29T23:28:03.291Z,2.27
2018-11-29T23:30:31.246Z,2.80
2018-11-29T23:32:59.203Z,2.30
2018-11-29T23:35:27.188Z,2.63
2018-11-29T23:37:55.334Z,3.40
2018-11-29T23:40:24.610Z,2.50
2018-11-29T23:42:52.679Z,1.97
2018-11-29T23:45:20.751Z,2.20
2018-11-29T23:47:48.650Z,1.97
2018-11-29T23:50:17.304Z,2.07
2018-11-29T23:52:45.623Z,3.27
2018-11-29T23:55:14.469Z,2.30
2018-11-29T23:57:42.377Z,1.97
